createdAt,value
2018-05-01T00:00:02.060Z,0
2018-05-01T00:01:02.641Z,0
2018-05-01T00:02:03.261Z,0
2018-05-01T00:03:03.842Z,0
2018-05-01T00:04:48.927Z,0
2018-05-01T00:05:49.506Z,0
2018-05-01T00:06:50.131Z,0
2018-05-01T00:07:50.758Z,0
2018-05-01T00:09:35.898Z,0
2018-05-01T00:10:36.475Z,0
2018-05-01T00:11:37.052Z,0
2018-05-01T00:12:37.633Z,0
2018-05-01T00:14:22.717Z,0
2018-05-01T00:15:23.295Z,0
2018-05-01T00:16:23.876Z,0
2018-05-01T00:17:24.451Z,0
2018-05-01T00:19:09.540Z,0
2018-05-01T00:20:10.118Z,0
2018-05-01T00:21:10.696Z,0
2018-05-01T00:22:11.275Z,0
2018-05-01T00:23:56.363Z,0
2018-05-01T00:24:56.991Z,0
2018-05-01T00:25:57.572Z,0
2018-05-01T00:26:58.145Z,0
2018-05-01T00:28:43.291Z,0
2018-05-01T00:29:43.868Z,0
2018-05-01T00:30:44.491Z,0
2018-05-01T00:31:45.068Z,0
2018-05-01T00:33:30.158Z,0
2018-05-01T00:34:30.736Z,0
2018-05-01T00:35:31.314Z,0
2018-05-01T00:36:31.897Z,0
2018-05-01T00:38:17.025Z,0
2018-05-01T00:39:17.604Z,0
2018-05-01T00:40:18.180Z,0
2018-05-01T00:41:18.760Z,0
2018-05-01T00:43:03.899Z,0
2018-05-01T00:44:04.475Z,0
2018-05-01T00:45:05.101Z,0
2018-05-01T00:46:05.679Z,0
2018-05-01T00:47:50.771Z,0
2018-05-01T00:48:51.348Z,0
2018-05-01T00:49:51.933Z,0
2018-05-01T00:50:52.505Z,0
2018-05-01T00:52:37.594Z,0
2018-05-01T00:53:38.221Z,0
2018-05-01T00:54:38.798Z,0
2018-05-01T00:55:39.375Z,0
2018-05-01T00:57:24.465Z,0
2018-05-01T00:58:25.045Z,0
2018-05-01T00:59:25.626Z,0
2018-05-01T01:00:26.251Z,0
2018-05-01T01:02:11.342Z,0
2018-05-01T01:03:11.920Z,0
2018-05-01T01:04:12.498Z,0
2018-05-01T01:05:13.077Z,0
2018-05-01T01:06:58.166Z,0
2018-05-01T01:07:58.794Z,0
2018-05-01T01:08:59.370Z,0
2018-05-01T01:09:59.946Z,0
2018-05-01T01:11:45.086Z,0
2018-05-01T01:12:45.664Z,0
2018-05-01T01:13:46.239Z,0
2018-05-01T01:14:46.815Z,0
2018-05-01T01:16:31.909Z,0
2018-05-01T01:17:32.532Z,0
2018-05-01T01:18:33.108Z,0
2018-05-01T01:19:33.689Z,0
2018-05-01T01:21:18.824Z,0
2018-05-01T01:22:19.444Z,0
2018-05-01T01:23:20.023Z,0
2018-05-01T01:24:20.601Z,0
2018-05-01T01:26:05.691Z,0
2018-05-01T01:27:06.269Z,0
2018-05-01T01:28:06.847Z,0
2018-05-01T01:29:07.426Z,0
2018-05-01T01:30:52.566Z,0
2018-05-01T01:31:53.144Z,0
2018-05-01T01:32:53.771Z,0
2018-05-01T01:33:54.348Z,0
2018-05-01T01:35:39.437Z,0
2018-05-01T01:36:40.016Z,0
2018-05-01T01:37:40.592Z,0
2018-05-01T01:38:41.172Z,0
2018-05-01T01:40:26.309Z,0
2018-05-01T01:41:26.887Z,0
2018-05-01T01:42:27.464Z,0
2018-05-01T01:43:28.041Z,0
2018-05-01T01:45:13.131Z,0
2018-05-01T01:46:13.710Z,0
2018-05-01T01:47:14.286Z,0
2018-05-01T01:48:14.866Z,0
2018-05-01T01:50:00.007Z,0
2018-05-01T01:51:00.626Z,0
2018-05-01T01:52:01.208Z,0
2018-05-01T01:53:01.828Z,0
2018-05-01T01:54:46.963Z,0
2018-05-01T01:55:47.541Z,0
2018-05-01T01:56:48.122Z,0
2018-05-01T01:57:48.698Z,0
2018-05-01T01:59:33.788Z,0
2018-05-01T02:00:34.415Z,0
2018-05-01T02:01:35.042Z,0
2018-05-01T02:02:35.619Z,0
2018-05-01T02:04:20.710Z,0
2018-05-01T02:05:21.289Z,0
2018-05-01T02:06:21.917Z,0
2018-05-01T02:07:22.493Z,0
2018-05-01T02:09:07.632Z,0
2018-05-01T02:10:08.210Z,0
2018-05-01T02:11:08.788Z,0
2018-05-01T02:12:09.366Z,0
2018-05-01T02:13:54.655Z,0
2018-05-01T02:14:55.230Z,0
2018-05-01T02:15:55.807Z,0
2018-05-01T02:16:56.384Z,0
2018-05-01T02:18:41.474Z,0
2018-05-01T02:19:42.105Z,0
2018-05-01T02:20:42.721Z,0
2018-05-01T02:21:43.301Z,0
2018-05-01T02:23:28.387Z,0
2018-05-01T02:24:28.966Z,0
2018-05-01T02:25:29.543Z,0
2018-05-01T02:26:30.122Z,0
2018-05-01T02:28:15.262Z,0
2018-05-01T02:29:15.840Z,0
2018-05-01T02:30:16.420Z,0
2018-05-01T02:31:17.036Z,0
2018-05-01T02:33:02.176Z,0
2018-05-01T02:34:02.753Z,0
2018-05-01T02:35:03.329Z,0
2018-05-01T02:36:03.955Z,0
2018-05-01T02:37:49.046Z,0
2018-05-01T02:38:49.623Z,0
2018-05-01T02:39:50.202Z,0
2018-05-01T02:40:50.779Z,0
2018-05-01T02:42:35.866Z,0
2018-05-01T02:43:36.444Z,0
2018-05-01T02:44:37.019Z,0
2018-05-01T02:45:37.597Z,0
2018-05-01T02:47:22.740Z,0
2018-05-01T02:48:23.357Z,0
2018-05-01T02:49:23.934Z,0
2018-05-01T02:50:24.512Z,0
2018-05-01T02:52:09.610Z,0
2018-05-01T02:53:10.178Z,0
2018-05-01T02:54:10.756Z,0
2018-05-01T02:55:11.536Z,0
2018-05-01T02:56:56.625Z,0
2018-05-01T02:57:57.203Z,0
2018-05-01T02:58:57.782Z,0
2018-05-01T02:59:58.409Z,0
2018-05-01T03:01:48.553Z,0
2018-05-01T03:02:49.179Z,0
2018-05-01T03:03:49.756Z,0
2018-05-01T03:04:50.331Z,0
2018-05-01T03:06:35.422Z,0
2018-05-01T03:07:36.000Z,0
2018-05-01T03:08:36.578Z,0
2018-05-01T03:09:37.210Z,0
2018-05-01T03:11:22.337Z,0
2018-05-01T03:12:22.914Z,0
2018-05-01T03:13:23.491Z,0
2018-05-01T03:14:24.110Z,0
2018-05-01T03:16:09.199Z,0
2018-05-01T03:17:09.776Z,0
2018-05-01T03:18:10.403Z,0
2018-05-01T03:19:10.979Z,0
2018-05-01T03:20:56.069Z,0
2018-05-01T03:21:56.647Z,0
2018-05-01T03:22:57.274Z,0
2018-05-01T03:23:57.850Z,0
2018-05-01T03:25:42.940Z,0
2018-05-01T03:26:43.609Z,0
2018-05-01T03:27:44.187Z,0
2018-05-01T03:28:44.761Z,0
2018-05-01T03:30:29.850Z,0
2018-05-01T03:31:30.427Z,0
2018-05-01T03:32:31.005Z,0
2018-05-01T03:33:31.583Z,0
2018-05-01T03:35:16.671Z,0
2018-05-01T03:36:17.248Z,0
2018-05-01T03:37:17.828Z,0
2018-05-01T03:38:18.603Z,0
2018-05-01T03:40:03.746Z,0
2018-05-01T03:41:04.320Z,0
2018-05-01T03:42:04.896Z,0
2018-05-01T03:43:05.474Z,0
2018-05-01T03:44:50.562Z,0
2018-05-01T03:45:51.191Z,0
2018-05-01T03:46:51.766Z,0
2018-05-01T03:47:52.342Z,0
2018-05-01T03:49:37.432Z,0
2018-05-01T03:50:38.010Z,0
2018-05-01T03:51:38.588Z,0
2018-05-01T03:52:39.165Z,0
2018-05-01T03:54:24.253Z,0
2018-05-01T03:55:24.830Z,0
2018-05-01T03:56:25.408Z,0
2018-05-01T03:57:25.987Z,0
2018-05-01T03:59:11.127Z,0
2018-05-01T04:00:11.704Z,0
2018-05-01T04:01:12.282Z,0
2018-05-01T04:02:12.884Z,0
2018-05-01T04:03:58.048Z,0
2018-05-01T04:04:58.625Z,0
2018-05-01T04:05:59.402Z,0
2018-05-01T04:06:59.981Z,0
2018-05-01T04:08:45.069Z,0
2018-05-01T04:09:45.646Z,0
2018-05-01T04:10:46.224Z,0
2018-05-01T04:11:46.802Z,0
2018-05-01T04:13:31.891Z,0
2018-05-01T04:14:32.467Z,0
2018-05-01T04:15:33.045Z,0
2018-05-01T04:16:33.625Z,0
2018-05-01T04:18:18.723Z,0
2018-05-01T04:19:19.343Z,0
2018-05-01T04:20:19.969Z,0
2018-05-01T04:21:20.549Z,0
2018-05-01T04:23:05.639Z,0
2018-05-01T04:24:06.257Z,0
2018-05-01T04:25:06.885Z,0
2018-05-01T04:26:07.460Z,0
2018-05-01T04:27:52.550Z,0
2018-05-01T04:28:53.127Z,0
2018-05-01T04:29:53.705Z,0
2018-05-01T04:30:54.283Z,0
2018-05-01T04:32:39.372Z,0
2018-05-01T04:33:39.949Z,0
2018-05-01T04:34:40.528Z,0
2018-05-01T04:35:41.105Z,0
2018-05-01T04:37:26.195Z,0
2018-05-01T04:38:26.772Z,0
2018-05-01T04:39:27.398Z,0
2018-05-01T04:40:27.974Z,0
2018-05-01T04:42:13.112Z,0
2018-05-01T04:43:13.695Z,0
2018-05-01T04:44:14.267Z,0
2018-05-01T04:45:14.895Z,0
2018-05-01T04:47:00.037Z,0
2018-05-01T04:48:00.614Z,0
2018-05-01T04:49:01.191Z,0
2018-05-01T04:50:01.769Z,0
2018-05-01T04:51:46.860Z,0
2018-05-01T04:52:47.435Z,0
2018-05-01T04:53:48.013Z,0
2018-05-01T04:54:48.591Z,0
2018-05-01T04:56:33.730Z,0
2018-05-01T04:57:34.307Z,0
2018-05-01T04:58:34.909Z,0
2018-05-01T04:59:35.459Z,0
2018-05-01T05:01:20.649Z,0
2018-05-01T05:02:21.225Z,0
2018-05-01T05:03:21.801Z,0
2018-05-01T05:04:22.377Z,0
2018-05-01T05:06:07.470Z,0
2018-05-01T05:07:08.044Z,0
2018-05-01T05:08:08.621Z,0
2018-05-01T05:09:09.199Z,0
2018-05-01T05:10:54.287Z,0
2018-05-01T05:11:54.866Z,0
2018-05-01T05:12:55.443Z,0
2018-05-01T05:13:56.024Z,0
2018-05-01T05:15:41.109Z,0
2018-05-01T05:16:41.736Z,0
2018-05-01T05:17:42.362Z,0
2018-05-01T05:18:42.940Z,0
2018-05-01T05:20:28.033Z,0
2018-05-01T05:21:28.657Z,0
2018-05-01T05:22:29.234Z,0
2018-05-01T05:23:29.811Z,0
2018-05-01T05:25:14.899Z,0
2018-05-01T05:26:15.477Z,0
2018-05-01T05:27:16.054Z,0
2018-05-01T05:28:16.632Z,0
2018-05-01T05:30:01.722Z,0
2018-05-01T05:31:02.397Z,0
2018-05-01T05:32:03.023Z,0
2018-05-01T05:33:03.599Z,0
2018-05-01T05:34:48.689Z,0
2018-05-01T05:35:49.269Z,0
2018-05-01T05:36:49.842Z,0
2018-05-01T05:37:50.521Z,0
2018-05-01T05:39:35.612Z,0
2018-05-01T05:40:36.188Z,0
2018-05-01T05:41:36.764Z,0
2018-05-01T05:42:37.342Z,0
2018-05-01T05:44:22.430Z,0
2018-05-01T05:45:23.008Z,0
2018-05-01T05:46:23.636Z,0
2018-05-01T05:47:24.212Z,0
2018-05-01T05:49:09.352Z,0
2018-05-01T05:50:09.929Z,0
2018-05-01T05:51:10.504Z,0
2018-05-01T05:52:11.080Z,0
2018-05-01T05:53:56.169Z,0
2018-05-01T05:54:56.747Z,0
2018-05-01T05:55:57.323Z,0
2018-05-01T05:56:57.903Z,0
2018-05-01T05:58:42.992Z,0
2018-05-01T05:59:43.619Z,0
2018-05-01T06:00:44.194Z,0
2018-05-01T06:01:44.771Z,0
2018-05-01T06:03:29.861Z,0
2018-05-01T06:04:30.438Z,0
2018-05-01T06:05:31.064Z,0
2018-05-01T06:06:31.640Z,0
2018-05-01T06:08:16.778Z,0
2018-05-01T06:09:17.355Z,0
2018-05-01T06:10:17.931Z,0
2018-05-01T06:11:18.506Z,0
2018-05-01T06:13:03.596Z,0
2018-05-01T06:14:04.222Z,0
2018-05-01T06:15:04.797Z,0
2018-05-01T06:16:05.374Z,0
2018-05-01T06:17:50.513Z,0
2018-05-01T06:18:51.091Z,0
2018-05-01T06:19:51.670Z,0
2018-05-01T06:20:52.246Z,0
2018-05-01T06:22:37.335Z,0
2018-05-01T06:23:37.913Z,0
2018-05-01T06:24:38.489Z,0
2018-05-01T06:25:39.066Z,0
2018-05-01T06:27:24.154Z,0
2018-05-01T06:28:24.731Z,0
2018-05-01T06:29:25.366Z,0
2018-05-01T06:30:26.029Z,0
2018-05-01T06:32:11.119Z,0
2018-05-01T06:33:11.696Z,0
2018-05-01T06:34:12.322Z,0
2018-05-01T06:35:12.898Z,0
2018-05-01T06:36:58.069Z,0
2018-05-01T06:37:58.614Z,0
2018-05-01T06:38:59.188Z,0
2018-05-01T06:39:59.765Z,0
2018-05-01T06:41:44.853Z,0
2018-05-01T06:42:45.431Z,0
2018-05-01T06:43:46.007Z,0
2018-05-01T06:44:46.585Z,0
2018-05-01T06:46:31.674Z,0
2018-05-01T06:47:32.251Z,0
2018-05-01T06:48:32.877Z,0
2018-05-01T06:49:33.453Z,0
2018-05-01T06:51:18.593Z,0
2018-05-01T06:52:19.170Z,0
2018-05-01T06:53:19.798Z,0
2018-05-01T06:54:20.373Z,0
2018-05-01T06:56:05.463Z,0
2018-05-01T06:57:06.039Z,0
2018-05-01T06:58:06.617Z,0
2018-05-01T06:59:07.195Z,0
2018-05-01T07:00:52.283Z,0
2018-05-01T07:01:52.860Z,0
2018-05-01T07:02:53.437Z,0
2018-05-01T07:03:54.016Z,0
2018-05-01T07:05:39.105Z,0
2018-05-01T07:06:39.681Z,0
2018-05-01T07:07:40.258Z,0
2018-05-01T07:08:40.886Z,0
2018-05-01T07:10:26.025Z,0
2018-05-01T07:11:26.603Z,0
2018-05-01T07:12:27.180Z,0
2018-05-01T07:13:27.758Z,0
2018-05-01T07:15:12.847Z,0
2018-05-01T07:16:13.428Z,0
2018-05-01T07:17:14.052Z,0
2018-05-01T07:18:14.627Z,0
2018-05-01T07:19:59.721Z,0
2018-05-01T07:21:00.293Z,0
2018-05-01T07:22:00.868Z,0
2018-05-01T07:23:01.446Z,0
2018-05-01T07:24:46.534Z,0
2018-05-01T07:25:47.165Z,0
2018-05-01T07:26:47.787Z,0
2018-05-01T07:27:48.364Z,0
2018-05-01T07:29:33.455Z,0
2018-05-01T07:30:34.033Z,0
2018-05-01T07:31:34.608Z,0
2018-05-01T07:32:35.240Z,0
2018-05-01T07:34:20.324Z,0
2018-05-01T07:35:20.903Z,0
2018-05-01T07:36:21.480Z,0
2018-05-01T07:37:22.058Z,0
2018-05-01T07:39:07.147Z,0
2018-05-01T07:40:07.725Z,0
2018-05-01T07:41:08.305Z,0
2018-05-01T07:42:08.922Z,0
2018-05-01T07:43:54.062Z,0
2018-05-01T07:44:54.688Z,0
2018-05-01T07:45:55.263Z,0
2018-05-01T07:46:55.840Z,0
2018-05-01T07:48:40.931Z,0
2018-05-01T07:49:41.508Z,0
2018-05-01T07:50:42.084Z,0
2018-05-01T07:51:42.662Z,0
2018-05-01T07:53:27.801Z,0
2018-05-01T07:54:28.379Z,0
2018-05-01T07:55:28.955Z,0
2018-05-01T07:56:29.533Z,0
2018-05-01T07:58:14.620Z,0
2018-05-01T07:59:15.201Z,0
2018-05-01T08:00:15.790Z,0
2018-05-01T08:01:16.354Z,0
2018-05-01T08:03:01.495Z,0
2018-05-01T08:04:02.071Z,0
2018-05-01T08:05:02.646Z,0
2018-05-01T08:06:03.226Z,0
2018-05-01T08:07:48.313Z,0
2018-05-01T08:08:48.894Z,0
2018-05-01T08:09:49.511Z,0
2018-05-01T08:10:50.088Z,0
2018-05-01T08:12:35.228Z,0
2018-05-01T08:13:35.855Z,0
2018-05-01T08:14:36.431Z,0
2018-05-01T08:15:37.007Z,0
2018-05-01T08:17:22.095Z,0
2018-05-01T08:18:22.672Z,0
2018-05-01T08:19:23.449Z,0
2018-05-01T08:20:24.024Z,0
2018-05-01T08:22:09.113Z,0
2018-05-01T08:23:09.690Z,0
2018-05-01T08:24:10.302Z,0
2018-05-01T08:25:10.895Z,0
2018-05-01T08:26:55.983Z,0
2018-05-01T08:27:56.561Z,0
2018-05-01T08:28:57.138Z,0
2018-05-01T08:29:57.715Z,0
2018-05-01T08:31:42.861Z,0
2018-05-01T08:32:43.429Z,0
2018-05-01T08:33:44.056Z,0
2018-05-01T08:34:44.685Z,0
2018-05-01T08:36:29.776Z,0
2018-05-01T08:37:30.395Z,0
2018-05-01T08:38:30.980Z,0
2018-05-01T08:39:31.550Z,0
2018-05-01T08:41:16.638Z,0
2018-05-01T08:42:17.219Z,0
2018-05-01T08:43:17.836Z,0
2018-05-01T08:44:18.412Z,0
2018-05-01T08:46:03.500Z,0
2018-05-01T08:47:04.129Z,0
2018-05-01T08:48:04.703Z,0
2018-05-01T08:49:05.279Z,0
2018-05-01T08:50:50.370Z,0
2018-05-01T08:51:50.997Z,0
2018-05-01T08:52:51.574Z,0
2018-05-01T08:53:52.152Z,0
2018-05-01T08:55:37.244Z,0
2018-05-01T08:56:37.872Z,0
2018-05-01T08:57:38.451Z,5
2018-05-01T08:58:39.031Z,5
2018-05-01T09:00:24.124Z,5
2018-05-01T09:01:24.705Z,50
2018-05-01T09:02:25.286Z,50
2018-05-01T09:03:25.867Z,50
2018-05-01T09:05:11.011Z,50
2018-05-01T09:06:11.594Z,55
2018-05-01T09:07:12.174Z,55
2018-05-01T09:08:12.756Z,55
2018-05-01T09:09:57.851Z,55
2018-05-01T09:10:58.432Z,55
2018-05-01T09:11:59.063Z,55
2018-05-01T09:12:59.694Z,55
2018-05-01T09:14:44.789Z,55
2018-05-01T09:15:45.371Z,55
2018-05-01T09:16:45.959Z,55
2018-05-01T09:17:46.635Z,55
2018-05-01T09:19:31.628Z,55
2018-05-01T09:20:32.209Z,60
2018-05-01T09:21:32.841Z,60
2018-05-01T09:22:33.421Z,60
2018-05-01T09:24:18.516Z,65
2018-05-01T09:25:19.099Z,70
2018-05-01T09:26:19.679Z,75
2018-05-01T09:27:20.314Z,75
2018-05-01T09:29:05.449Z,80
2018-05-01T09:30:06.032Z,80
2018-05-01T09:31:06.613Z,80
2018-05-01T09:32:07.194Z,80
2018-05-01T09:33:52.442Z,80
2018-05-01T09:34:53.023Z,80
2018-05-01T09:35:53.611Z,80
2018-05-01T09:36:54.241Z,80
2018-05-01T09:38:39.335Z,85
2018-05-01T09:39:39.915Z,85
2018-05-01T09:40:40.549Z,85
2018-05-01T09:41:41.127Z,85
2018-05-01T09:43:26.220Z,85
2018-05-01T09:44:26.853Z,85
2018-05-01T09:45:27.437Z,85
2018-05-01T09:46:28.069Z,85
2018-05-01T09:48:13.165Z,85
2018-05-01T09:49:13.747Z,85
2018-05-01T09:50:14.327Z,85
2018-05-01T09:51:14.911Z,85
2018-05-01T09:53:00.006Z,85
2018-05-01T09:54:00.589Z,85
2018-05-01T09:55:01.171Z,85
2018-05-01T09:56:01.804Z,85
2018-05-01T09:57:46.948Z,90
2018-05-01T09:58:47.528Z,90
2018-05-01T09:59:48.110Z,90
2018-05-01T10:00:48.691Z,90
2018-05-01T10:02:33.835Z,90
2018-05-01T10:03:34.422Z,90
2018-05-01T10:04:34.999Z,90
2018-05-01T10:05:35.582Z,90
2018-05-01T10:07:20.678Z,90
2018-05-01T10:08:21.262Z,90
2018-05-01T10:09:21.842Z,90
2018-05-01T10:10:22.469Z,90
2018-05-01T10:12:07.566Z,90
2018-05-01T10:13:08.147Z,90
2018-05-01T10:14:08.779Z,90
2018-05-01T10:15:09.361Z,90
2018-05-01T10:16:54.506Z,90
2018-05-01T10:17:55.088Z,90
2018-05-01T10:18:55.668Z,90
2018-05-01T10:19:56.250Z,95
2018-05-01T10:21:41.351Z,95
2018-05-01T10:22:41.930Z,95
2018-05-01T10:23:42.513Z,95
2018-05-01T10:24:43.097Z,95
2018-05-01T10:26:28.241Z,100
2018-05-01T10:27:28.823Z,100
2018-05-01T10:28:29.405Z,100
2018-05-01T10:29:29.993Z,100
2018-05-01T10:31:15.084Z,100
2018-05-01T10:32:15.668Z,100
2018-05-01T10:33:16.251Z,105
2018-05-01T10:34:16.884Z,100
2018-05-01T10:36:02.279Z,100
2018-05-01T10:37:02.862Z,105
2018-05-01T10:39:05.079Z,105
2018-05-01T10:40:53.992Z,110
2018-05-01T10:41:54.565Z,110
2018-05-01T10:42:55.139Z,110
2018-05-01T10:43:55.715Z,110
2018-05-01T10:45:40.678Z,115
2018-05-01T10:46:41.268Z,115
2018-05-01T10:47:41.899Z,115
2018-05-01T10:48:42.516Z,120
2018-05-01T10:50:27.443Z,120
2018-05-01T10:51:28.027Z,125
2018-05-01T10:52:28.644Z,130
2018-05-01T10:53:29.276Z,135
2018-05-01T10:55:14.198Z,140
2018-05-01T10:56:14.779Z,255
2018-05-01T10:57:15.360Z,600
2018-05-01T10:58:15.942Z,1220
2018-05-01T11:00:01.079Z,1250
2018-05-01T11:01:01.694Z,1250
2018-05-01T11:02:02.293Z,1265
2018-05-01T11:03:02.858Z,1250
2018-05-01T11:04:47.783Z,1270
2018-05-01T11:05:48.365Z,1300
2018-05-01T11:06:49.005Z,1310
2018-05-01T11:07:49.642Z,1310
2018-05-01T11:09:34.796Z,1360
2018-05-01T11:10:35.390Z,1370
2018-05-01T11:11:36.024Z,1380
2018-05-01T11:12:36.605Z,1325
2018-05-01T11:14:21.760Z,1295
2018-05-01T11:15:22.348Z,1315
2018-05-01T11:16:22.988Z,1410
2018-05-01T11:17:23.638Z,1410
2018-05-01T11:19:08.682Z,1360
2018-05-01T11:20:09.276Z,1330
2018-05-01T11:21:09.860Z,1385
2018-05-01T11:22:10.453Z,1330
2018-05-01T11:23:55.607Z,1410
2018-05-01T11:24:56.196Z,1445
2018-05-01T11:25:56.874Z,1390
2018-05-01T11:26:57.378Z,1440
2018-05-01T11:28:42.934Z,1400
2018-05-01T11:29:43.575Z,1350
2018-05-01T11:30:44.367Z,1365
2018-05-01T11:31:45.013Z,1350
2018-05-01T11:33:30.135Z,1345
2018-05-01T11:34:30.809Z,1000
2018-05-01T11:35:31.401Z,400
2018-05-01T11:36:31.996Z,235
2018-05-01T11:38:17.140Z,215
2018-05-01T11:39:17.736Z,210
2018-05-01T11:40:18.323Z,205
2018-05-01T11:41:18.917Z,205
2018-05-01T11:43:04.065Z,200
2018-05-01T11:44:04.660Z,200
2018-05-01T11:45:05.341Z,205
2018-05-01T11:46:05.841Z,205
2018-05-01T11:47:50.998Z,205
2018-05-01T11:48:51.593Z,210
2018-05-01T11:49:52.385Z,210
2018-05-01T11:50:52.978Z,220
2018-05-01T11:52:38.085Z,225
2018-05-01T11:53:38.682Z,230
2018-05-01T11:54:39.274Z,245
2018-05-01T11:55:39.865Z,270
2018-05-01T11:57:25.025Z,1060
2018-05-01T11:58:25.618Z,1315
2018-05-01T11:59:26.215Z,1440
2018-05-01T12:00:26.806Z,1440
2018-05-01T12:02:11.965Z,1460
2018-05-01T12:03:12.558Z,1455
2018-05-01T12:04:13.154Z,1430
2018-05-01T12:05:13.747Z,1445
2018-05-01T12:06:58.857Z,1440
2018-05-01T12:07:59.496Z,1325
2018-05-01T12:09:00.081Z,1365
2018-05-01T12:10:00.677Z,1480
2018-05-01T12:11:45.829Z,1550
2018-05-01T12:12:46.426Z,1550
2018-05-01T12:13:47.023Z,1520
2018-05-01T12:14:48.809Z,1500
2018-05-01T12:16:33.920Z,1570
2018-05-01T12:17:34.517Z,1625
2018-05-01T12:18:35.120Z,1550
2018-05-01T12:19:35.748Z,1525
2018-05-01T12:21:20.910Z,1585
2018-05-01T12:22:21.506Z,1535
2018-05-01T12:23:22.103Z,1495
2018-05-01T12:24:22.697Z,1465
2018-05-01T12:26:07.858Z,1470
2018-05-01T12:27:08.455Z,1495
2018-05-01T12:28:09.049Z,1580
2018-05-01T12:29:09.648Z,1585
2018-05-01T12:30:54.758Z,1625
2018-05-01T12:31:55.355Z,1620
2018-05-01T12:32:55.950Z,1675
2018-05-01T12:33:56.546Z,1655
2018-05-01T12:35:41.707Z,1620
2018-05-01T12:36:42.392Z,1635
2018-05-01T12:37:42.898Z,1640
2018-05-01T12:38:43.494Z,1625
2018-05-01T12:40:28.655Z,1655
2018-05-01T12:41:29.252Z,1720
2018-05-01T12:42:29.886Z,1635
2018-05-01T12:43:30.444Z,1615
2018-05-01T12:45:15.605Z,1530
2018-05-01T12:46:16.200Z,1540
2018-05-01T12:47:16.797Z,1565
2018-05-01T12:48:17.423Z,1550
2018-05-01T12:50:02.596Z,1680
2018-05-01T12:51:03.187Z,1575
2018-05-01T12:52:03.785Z,1545
2018-05-01T12:53:04.422Z,1640
2018-05-01T12:54:49.585Z,1545
2018-05-01T12:55:50.180Z,1585
2018-05-01T12:56:50.778Z,1610
2018-05-01T12:57:51.375Z,1540
2018-05-01T12:59:36.489Z,1450
2018-05-01T13:00:37.087Z,1470
2018-05-01T13:01:37.684Z,1450
2018-05-01T13:02:38.279Z,1480
2018-05-01T13:04:23.395Z,1600
2018-05-01T13:05:23.988Z,1585
2018-05-01T13:07:26.223Z,1515
2018-05-01T13:09:11.476Z,1530
2018-05-01T13:10:12.072Z,1520
2018-05-01T13:11:12.669Z,1550
2018-05-01T13:12:13.266Z,1510
2018-05-01T13:13:58.380Z,1400
2018-05-01T13:14:58.978Z,1450
2018-05-01T13:15:59.572Z,1465
2018-05-01T13:17:00.174Z,1445
2018-05-01T13:18:45.283Z,1365
2018-05-01T13:19:45.880Z,1345
2018-05-01T13:20:46.478Z,1415
2018-05-01T13:21:47.278Z,1410
2018-05-01T13:23:32.388Z,1400
2018-05-01T13:24:32.986Z,1400
2018-05-01T13:25:33.633Z,1420
2018-05-01T13:26:34.228Z,1415
2018-05-01T13:28:19.390Z,1380
2018-05-01T13:29:19.988Z,1385
2018-05-01T13:30:20.583Z,1405
2018-05-01T13:31:21.185Z,1390
2018-05-01T13:33:06.337Z,1365
2018-05-01T13:34:06.932Z,1380
2018-05-01T13:35:07.527Z,1410
2018-05-01T13:36:08.124Z,1410
2018-05-01T13:37:53.276Z,1370
2018-05-01T13:38:53.886Z,1390
2018-05-01T13:39:54.481Z,1415
2018-05-01T13:40:55.078Z,1415
2018-05-01T13:42:40.196Z,1445
2018-05-01T13:43:40.782Z,1420
2018-05-01T13:44:41.382Z,1355
2018-05-01T13:45:41.971Z,1320
2018-05-01T13:47:27.132Z,1330
2018-05-01T13:48:27.728Z,1365
2018-05-01T13:49:28.324Z,1300
2018-05-01T13:50:28.949Z,1280
2018-05-01T13:52:14.084Z,1335
2018-05-01T13:53:14.677Z,1340
2018-05-01T13:54:15.302Z,1420
2018-05-01T13:55:15.935Z,1420
2018-05-01T13:57:00.980Z,1320
2018-05-01T13:58:01.593Z,1355
2018-05-01T13:59:02.288Z,1265
2018-05-01T14:00:02.859Z,1255
2018-05-01T14:01:47.969Z,1315
2018-05-01T14:02:48.569Z,1280
2018-05-01T14:03:49.311Z,1255
2018-05-01T14:04:49.907Z,1275
2018-05-01T14:06:35.015Z,1145
2018-05-01T14:09:38.837Z,1045
2018-05-01T14:11:23.947Z,870
2018-05-01T14:14:27.759Z,715
2018-05-01T14:16:12.943Z,585
2018-05-01T14:17:13.530Z,505
2018-05-01T14:18:14.118Z,425
2018-05-01T14:19:14.767Z,335
2018-05-01T14:20:59.735Z,310
2018-05-01T14:22:00.324Z,300
2018-05-01T14:23:00.916Z,290
2018-05-01T14:24:01.552Z,290
2018-05-01T14:25:46.939Z,285
2018-05-01T14:26:47.427Z,290
2018-05-01T14:29:03.658Z,280
2018-05-01T14:30:04.245Z,270
2018-05-01T14:31:49.186Z,255
2018-05-01T14:32:49.775Z,250
2018-05-01T14:33:50.362Z,245
2018-05-01T14:34:51.001Z,245
2018-05-01T14:36:36.089Z,250
2018-05-01T14:37:36.678Z,250
2018-05-01T14:38:37.468Z,255
2018-05-01T14:39:38.055Z,265
2018-05-01T14:41:22.993Z,260
2018-05-01T14:42:23.583Z,255
2018-05-01T14:43:24.171Z,250
2018-05-01T14:44:24.760Z,250
2018-05-01T14:46:09.747Z,255
2018-05-01T14:47:10.338Z,250
2018-05-01T14:48:24.691Z,260
2018-05-01T14:49:25.280Z,255
2018-05-01T14:50:46.368Z,210
2018-05-01T14:51:46.964Z,250
2018-05-01T14:52:47.558Z,265
2018-05-01T14:53:48.153Z,260
2018-05-01T14:55:33.263Z,270
2018-05-01T14:56:33.859Z,275
2018-05-01T14:57:34.502Z,295
2018-05-01T14:58:35.099Z,310
2018-05-01T15:00:20.204Z,365
2018-05-01T15:01:20.919Z,410
2018-05-01T15:02:21.495Z,380
2018-05-01T15:03:22.087Z,535
2018-05-01T15:05:07.197Z,655
2018-05-01T15:06:07.790Z,690
2018-05-01T15:07:08.382Z,725
2018-05-01T15:08:08.973Z,740
2018-05-01T15:09:54.131Z,775
2018-05-01T15:10:54.721Z,750
2018-05-01T15:11:55.312Z,670
2018-05-01T15:12:55.903Z,640
2018-05-01T15:14:41.010Z,675
2018-05-01T15:15:41.652Z,655
2018-05-01T15:16:42.297Z,680
2018-05-01T15:17:42.884Z,690
2018-05-01T15:19:28.041Z,615
2018-05-01T15:20:28.630Z,625
2018-05-01T15:21:29.220Z,645
2018-05-01T15:22:29.861Z,655
2018-05-01T15:24:14.967Z,670
2018-05-01T15:25:15.557Z,635
2018-05-01T15:27:17.719Z,640
2018-05-01T15:29:02.659Z,585
2018-05-01T15:30:03.370Z,605
2018-05-01T15:31:03.838Z,620
2018-05-01T15:32:04.427Z,530
2018-05-01T15:33:49.628Z,470
2018-05-01T15:34:50.216Z,325
2018-05-01T15:35:50.805Z,220
2018-05-01T15:36:51.395Z,185
2018-05-01T15:38:36.498Z,195
2018-05-01T15:40:38.915Z,175
2018-05-01T15:41:39.497Z,195
2018-05-01T15:43:24.430Z,195
2018-05-01T15:44:38.782Z,190
2018-05-01T15:45:39.373Z,185
2018-05-01T15:46:39.963Z,190
2018-05-01T15:47:40.552Z,185
2018-05-01T15:49:25.700Z,180
2018-05-01T15:50:26.290Z,185
2018-05-01T15:51:26.931Z,180
2018-05-01T15:52:27.559Z,180
2018-05-01T15:54:12.671Z,175
2018-05-01T15:55:13.259Z,165
2018-05-01T15:56:13.895Z,165
2018-05-01T15:57:14.486Z,160
2018-05-01T15:58:59.635Z,150
2018-05-01T16:00:00.273Z,140
2018-05-01T16:02:02.430Z,140
2018-05-01T16:03:47.354Z,135
2018-05-01T16:04:47.984Z,135
2018-05-01T16:05:48.564Z,135
2018-05-01T16:06:49.146Z,130
2018-05-01T16:08:34.124Z,130
2018-05-01T16:09:34.706Z,130
2018-05-01T16:11:09.081Z,125
2018-05-01T16:12:09.712Z,120
2018-05-01T16:13:10.301Z,115
2018-05-01T16:14:10.998Z,115
2018-05-01T16:15:56.046Z,115
2018-05-01T16:16:56.628Z,110
2018-05-01T16:17:57.217Z,105
2018-05-01T16:18:57.804Z,105
2018-05-01T16:20:42.906Z,100
2018-05-01T16:21:43.496Z,100
2018-05-01T16:23:45.716Z,100
2018-05-01T16:26:32.535Z,100
2018-05-01T16:27:33.114Z,100
2018-05-01T16:28:33.691Z,95
2018-05-01T16:30:18.671Z,95
2018-05-01T16:31:19.244Z,90
2018-05-01T16:32:19.824Z,95
2018-05-01T16:33:25.455Z,90
2018-05-01T16:35:10.383Z,90
2018-05-01T16:36:11.012Z,90
2018-05-01T16:37:11.591Z,90
2018-05-01T16:38:12.171Z,90
2018-05-01T16:39:57.098Z,85
2018-05-01T16:40:57.681Z,85
2018-05-01T16:41:58.254Z,85
2018-05-01T16:42:58.833Z,85
2018-05-01T16:44:43.862Z,85
2018-05-01T16:45:44.586Z,100
2018-05-01T16:46:45.072Z,100
2018-05-01T16:47:45.653Z,100
2018-05-01T16:49:30.582Z,100
2018-05-01T16:50:31.169Z,100
2018-05-01T16:51:31.758Z,100
2018-05-01T16:52:32.346Z,100
2018-05-01T16:54:17.448Z,100
2018-05-01T16:55:18.038Z,100
2018-05-01T16:56:18.671Z,95
2018-05-01T16:57:19.259Z,95
2018-05-01T16:59:04.412Z,95
2018-05-01T17:00:05.047Z,95
2018-05-01T17:01:05.673Z,95
2018-05-01T17:02:06.259Z,95
2018-05-01T17:03:51.411Z,90
2018-05-01T17:04:51.994Z,90
2018-05-01T17:05:52.580Z,90
2018-05-01T17:06:53.206Z,85
2018-05-01T17:08:38.360Z,85
2018-05-01T17:09:38.951Z,80
2018-05-01T17:10:39.528Z,80
2018-05-01T17:11:40.115Z,80
2018-05-01T17:13:25.215Z,75
2018-05-01T17:14:25.801Z,75
2018-05-01T17:15:26.385Z,75
2018-05-01T17:16:26.969Z,75
2018-05-01T17:18:12.220Z,75